PAA62 EFHK-EDDF
Flight info
| Callsign | PAA62 |
|---|---|
| Flight time | 2h 10m |
| Altitude | 34000 |
| Route | NUNTO Y369 REKDO DCT KOSKA DCT BIKRU DCT HLZ DCT RIMET/N0460F330 T157 KOKEB/N0431F230 T157 KERAX |
| Aircraft | B722/M-SDFHIRWY/C |
Departure
| Time | 2026-05-07 17:36 |
|---|---|
| Airport | Helsinki Vantaa Airport (EFHK) |
Arrival
| Time | 2026-05-07 19:46 |
|---|---|
| Airport | Frankfurt Main Airport (EDDF) |
| Time | Latitude | Longitude | Altitude | Speed | Heading |
|---|---|---|---|---|---|
| 2026-05-07 16:57 | 60.32081 | 24.96667 | 165 ft | 0 kts | 137° |
| 2026-05-07 17:29 | 60.32071 | 24.96685 | 165 ft | 5 kts | 137° |
| 2026-05-07 17:29 | 60.32054 | 24.96735 | 165 ft | 3 kts | 84° |
| 2026-05-07 17:29 | 60.32071 | 24.96796 | 165 ft | 7 kts | 52° |
| 2026-05-07 17:29 | 60.32112 | 24.96870 | 164 ft | 9 kts | 7° |
| 2026-05-07 17:30 | 60.32174 | 24.96818 | 164 ft | 11 kts | 330° |
| 2026-05-07 17:30 | 60.32243 | 24.96737 | 165 ft | 12 kts | 329° |
| 2026-05-07 17:30 | 60.32296 | 24.96676 | 165 ft | 5 kts | 330° |
| 2026-05-07 17:30 | 60.32309 | 24.96661 | 165 ft | 0 kts | 330° |
| 2026-05-07 17:31 | 60.32323 | 24.96644 | 165 ft | 6 kts | 329° |
| 2026-05-07 17:31 | 60.32383 | 24.96573 | 165 ft | 14 kts | 329° |
| 2026-05-07 17:31 | 60.32490 | 24.96448 | 164 ft | 21 kts | 330° |
| 2026-05-07 17:31 | 60.32620 | 24.96296 | 164 ft | 23 kts | 330° |
| 2026-05-07 17:32 | 60.32762 | 24.96132 | 165 ft | 24 kts | 330° |
| 2026-05-07 17:32 | 60.32910 | 24.95959 | 165 ft | 25 kts | 330° |
| 2026-05-07 17:32 | 60.33048 | 24.95797 | 164 ft | 21 kts | 329° |
| 2026-05-07 17:32 | 60.33148 | 24.95627 | 164 ft | 18 kts | 316° |
| 2026-05-07 17:33 | 60.33210 | 24.95463 | 164 ft | 11 kts | 275° |
| 2026-05-07 17:33 | 60.33172 | 24.95313 | 164 ft | 14 kts | 229° |
| 2026-05-07 17:33 | 60.33112 | 24.95151 | 164 ft | 15 kts | 251° |
| 2026-05-07 17:33 | 60.33110 | 24.94925 | 165 ft | 17 kts | 272° |
| 2026-05-07 17:34 | 60.33116 | 24.94670 | 166 ft | 18 kts | 273° |
| 2026-05-07 17:34 | 60.33122 | 24.94480 | 174 ft | 10 kts | 273° |
| 2026-05-07 17:34 | 60.33113 | 24.94393 | 176 ft | 5 kts | 237° |
| 2026-05-07 17:34 | 60.33110 | 24.94383 | 176 ft | 0 kts | 231° |
| 2026-05-07 17:35 | 60.33098 | 24.94356 | 177 ft | 13 kts | 228° |
| 2026-05-07 17:35 | 60.32904 | 24.93928 | 179 ft | 71 kts | 228° |
| 2026-05-07 17:35 | 60.32436 | 24.92898 | 164 ft | 125 kts | 227° |
| 2026-05-07 17:35 | 60.31755 | 24.91441 | 309 ft | 152 kts | 225° |
| 2026-05-07 17:36 | 60.31055 | 24.89891 | 874 ft | 152 kts | 226° |
| 2026-05-07 17:36 | 60.30360 | 24.88222 | 1495 ft | 158 kts | 237° |
| 2026-05-07 17:36 | 60.30154 | 24.86056 | 2049 ft | 163 kts | 274° |
| 2026-05-07 17:36 | 60.30297 | 24.83706 | 2483 ft | 173 kts | 276° |
| 2026-05-07 17:37 | 60.30429 | 24.81240 | 2912 ft | 182 kts | 276° |
| 2026-05-07 17:37 | 60.30518 | 24.78573 | 3283 ft | 203 kts | 268° |
| 2026-05-07 17:37 | 60.30132 | 24.75682 | 3727 ft | 224 kts | 249° |
| 2026-05-07 17:37 | 60.29397 | 24.72715 | 4324 ft | 247 kts | 243° |
| 2026-05-07 17:38 | 60.28667 | 24.69442 | 5072 ft | 260 kts | 252° |
| 2026-05-07 17:38 | 60.28024 | 24.66050 | 6232 ft | 260 kts | 249° |
| 2026-05-07 17:38 | 60.27320 | 24.62634 | 7205 ft | 266 kts | 249° |
| 2026-05-07 17:38 | 60.26618 | 24.59239 | 8248 ft | 266 kts | 249° |
| 2026-05-07 17:39 | 60.25904 | 24.55787 | 9278 ft | 269 kts | 248° |
| 2026-05-07 17:39 | 60.25159 | 24.52310 | 10252 ft | 271 kts | 248° |
| 2026-05-07 17:39 | 60.24382 | 24.48820 | 11080 ft | 278 kts | 245° |
| 2026-05-07 17:39 | 60.23452 | 24.45252 | 11569 ft | 296 kts | 244° |
| 2026-05-07 17:40 | 60.22462 | 24.41477 | 12076 ft | 313 kts | 244° |
| 2026-05-07 17:40 | 60.21423 | 24.37509 | 12597 ft | 328 kts | 244° |
| 2026-05-07 17:40 | 60.20356 | 24.33462 | 13488 ft | 330 kts | 244° |
| 2026-05-07 17:40 | 60.19262 | 24.29379 | 14346 ft | 333 kts | 244° |
| 2026-05-07 17:41 | 60.18153 | 24.25281 | 15156 ft | 335 kts | 244° |
| 2026-05-07 17:41 | 60.17035 | 24.21165 | 16004 ft | 335 kts | 244° |
| 2026-05-07 17:41 | 60.15912 | 24.17042 | 16820 ft | 337 kts | 244° |
| 2026-05-07 17:41 | 60.14784 | 24.12905 | 17600 ft | 339 kts | 244° |
| 2026-05-07 17:42 | 60.13643 | 24.08724 | 18423 ft | 341 kts | 244° |
| 2026-05-07 17:42 | 60.12503 | 24.04545 | 19131 ft | 342 kts | 244° |
| 2026-05-07 17:42 | 60.11357 | 24.00343 | 19816 ft | 344 kts | 244° |
| 2026-05-07 17:42 | 60.10205 | 23.96125 | 20477 ft | 346 kts | 244° |
| 2026-05-07 17:43 | 60.09050 | 23.91879 | 21138 ft | 347 kts | 244° |
| 2026-05-07 17:43 | 60.07887 | 23.87636 | 21871 ft | 347 kts | 241° |
| 2026-05-07 17:43 | 60.06528 | 23.83646 | 22654 ft | 345 kts | 241° |
| 2026-05-07 17:43 | 60.05412 | 23.79420 | 23398 ft | 342 kts | 246° |
| 2026-05-07 17:44 | 60.04376 | 23.75171 | 23928 ft | 345 kts | 246° |
| 2026-05-07 17:44 | 60.03318 | 23.70843 | 24411 ft | 348 kts | 246° |
| 2026-05-07 17:44 | 60.02248 | 23.66473 | 24883 ft | 351 kts | 246° |
| 2026-05-07 17:44 | 60.01131 | 23.62110 | 25337 ft | 354 kts | 245° |
| 2026-05-07 17:45 | 59.99991 | 23.57725 | 25782 ft | 356 kts | 245° |
| 2026-05-07 17:45 | 59.98844 | 23.53319 | 26236 ft | 359 kts | 245° |
| 2026-05-07 17:45 | 59.97689 | 23.48879 | 26665 ft | 362 kts | 245° |
| 2026-05-07 17:45 | 59.96516 | 23.44408 | 27077 ft | 365 kts | 244° |
| 2026-05-07 17:46 | 59.95301 | 23.39929 | 27485 ft | 367 kts | 244° |
| 2026-05-07 17:46 | 59.94097 | 23.35487 | 27894 ft | 370 kts | 244° |
| 2026-05-07 17:46 | 59.92892 | 23.30939 | 28283 ft | 372 kts | 244° |
| 2026-05-07 17:46 | 59.91657 | 23.26372 | 28650 ft | 375 kts | 244° |
| 2026-05-07 17:47 | 59.90422 | 23.21768 | 29030 ft | 378 kts | 244° |
| 2026-05-07 17:47 | 59.89171 | 23.17136 | 29383 ft | 380 kts | 244° |
| 2026-05-07 17:47 | 59.87913 | 23.12478 | 29750 ft | 383 kts | 244° |
| 2026-05-07 17:47 | 59.86647 | 23.07794 | 30084 ft | 386 kts | 244° |
| 2026-05-07 17:48 | 59.85371 | 23.03075 | 30377 ft | 388 kts | 244° |
| 2026-05-07 17:48 | 59.84086 | 22.98323 | 30652 ft | 391 kts | 243° |
| 2026-05-07 17:48 | 59.82794 | 22.93546 | 30919 ft | 393 kts | 244° |
| 2026-05-07 17:48 | 59.81495 | 22.88743 | 31166 ft | 396 kts | 244° |
| 2026-05-07 17:49 | 59.80184 | 22.83903 | 31418 ft | 399 kts | 243° |
| 2026-05-07 17:49 | 59.78822 | 22.79079 | 31665 ft | 401 kts | 242° |
| 2026-05-07 17:49 | 59.77442 | 22.74243 | 31889 ft | 404 kts | 243° |
| 2026-05-07 17:49 | 59.76127 | 22.69367 | 32125 ft | 405 kts | 243° |
| 2026-05-07 17:50 | 59.74788 | 22.64430 | 32397 ft | 407 kts | 243° |
| 2026-05-07 17:50 | 59.73442 | 22.59471 | 32659 ft | 409 kts | 243° |
| 2026-05-07 17:50 | 59.72088 | 22.54497 | 32922 ft | 410 kts | 243° |
| 2026-05-07 17:50 | 59.70689 | 22.49565 | 33227 ft | 410 kts | 242° |
| 2026-05-07 17:51 | 59.69289 | 22.44628 | 33523 ft | 411 kts | 243° |
| 2026-05-07 17:51 | 59.67897 | 22.39679 | 33794 ft | 411 kts | 243° |
| 2026-05-07 17:51 | 59.66503 | 22.34725 | 33996 ft | 413 kts | 243° |
| 2026-05-07 17:51 | 59.65121 | 22.29819 | 34107 ft | 413 kts | 243° |
| 2026-05-07 17:52 | 59.62321 | 22.19889 | 34114 ft | 414 kts | 243° |
| 2026-05-07 17:52 | 59.59508 | 22.09925 | 34134 ft | 415 kts | 243° |
| 2026-05-07 17:53 | 59.56685 | 21.99940 | 34131 ft | 416 kts | 243° |
| 2026-05-07 17:53 | 59.53877 | 21.90021 | 34128 ft | 417 kts | 243° |
| 2026-05-07 17:54 | 59.51035 | 21.80026 | 34129 ft | 418 kts | 242° |
| 2026-05-07 17:54 | 59.48138 | 21.70082 | 34129 ft | 419 kts | 243° |
| 2026-05-07 17:55 | 59.45253 | 21.60122 | 34130 ft | 418 kts | 243° |
| 2026-05-07 17:55 | 59.42368 | 21.50178 | 34127 ft | 418 kts | 243° |
| 2026-05-07 17:56 | 59.39499 | 21.40301 | 34129 ft | 418 kts | 243° |
| 2026-05-07 17:56 | 59.36608 | 21.30366 | 34131 ft | 417 kts | 243° |
| 2026-05-07 17:57 | 59.34215 | 21.22154 | 34133 ft | 417 kts | 243° |
| 2026-05-07 17:57 | 59.30874 | 21.10704 | 34137 ft | 416 kts | 243° |
| 2026-05-07 17:58 | 59.28000 | 21.00866 | 34138 ft | 416 kts | 243° |
| 2026-05-07 17:58 | 59.25038 | 20.91116 | 34134 ft | 417 kts | 242° |
| 2026-05-07 17:59 | 59.22081 | 20.81341 | 34137 ft | 417 kts | 243° |
| 2026-05-07 17:59 | 59.19154 | 20.71554 | 34136 ft | 418 kts | 242° |
| 2026-05-07 18:00 | 59.15470 | 20.62742 | 34146 ft | 425 kts | 228° |
| 2026-05-07 18:00 | 59.10895 | 20.55330 | 34139 ft | 431 kts | 219° |
| 2026-05-07 18:01 | 59.06278 | 20.48021 | 34144 ft | 426 kts | 227° |
| 2026-05-07 18:01 | 59.01933 | 20.40147 | 34148 ft | 427 kts | 227° |
| 2026-05-07 18:02 | 58.95384 | 20.28416 | 34143 ft | 430 kts | 226° |
| 2026-05-07 18:03 | 58.90921 | 20.20671 | 34145 ft | 431 kts | 226° |
| 2026-05-07 18:03 | 58.86444 | 20.12911 | 34139 ft | 433 kts | 226° |
| 2026-05-07 18:04 | 58.81947 | 20.05130 | 34140 ft | 434 kts | 226° |
| 2026-05-07 18:04 | 58.77441 | 19.97343 | 34147 ft | 435 kts | 226° |
| 2026-05-07 18:05 | 58.72951 | 19.89593 | 34137 ft | 436 kts | 226° |
| 2026-05-07 18:05 | 58.68425 | 19.81791 | 34140 ft | 437 kts | 226° |
| 2026-05-07 18:06 | 58.63866 | 19.74028 | 34140 ft | 439 kts | 225° |
| 2026-05-07 18:06 | 58.59258 | 19.66292 | 34145 ft | 439 kts | 225° |
| 2026-05-07 18:07 | 58.54673 | 19.58551 | 34143 ft | 440 kts | 225° |
| 2026-05-07 18:07 | 58.50070 | 19.50790 | 34142 ft | 441 kts | 225° |
| 2026-05-07 18:08 | 58.45479 | 19.43104 | 34143 ft | 442 kts | 225° |
| 2026-05-07 18:08 | 58.40813 | 19.35317 | 34154 ft | 443 kts | 225° |
| 2026-05-07 18:09 | 58.36205 | 19.27627 | 34141 ft | 444 kts | 225° |
| 2026-05-07 18:09 | 58.31544 | 19.19894 | 34145 ft | 444 kts | 225° |
| 2026-05-07 18:10 | 58.26878 | 19.12163 | 34143 ft | 445 kts | 225° |
| 2026-05-07 18:10 | 58.22997 | 19.05743 | 34140 ft | 445 kts | 225° |
| 2026-05-07 18:11 | 58.17563 | 18.96768 | 34143 ft | 445 kts | 225° |
| 2026-05-07 18:11 | 58.12884 | 18.89055 | 34145 ft | 446 kts | 225° |
| 2026-05-07 18:12 | 58.08989 | 18.82644 | 34144 ft | 446 kts | 224° |
| 2026-05-07 18:12 | 58.04297 | 18.74930 | 34149 ft | 447 kts | 224° |
| 2026-05-07 18:13 | 57.99596 | 18.67211 | 34146 ft | 448 kts | 224° |
| 2026-05-07 18:13 | 57.94896 | 18.59509 | 34142 ft | 448 kts | 224° |
| 2026-05-07 18:14 | 57.90178 | 18.51909 | 34136 ft | 449 kts | 223° |
| 2026-05-07 18:14 | 57.85407 | 18.44285 | 34131 ft | 450 kts | 223° |
| 2026-05-07 18:15 | 57.80634 | 18.36668 | 34128 ft | 450 kts | 223° |
| 2026-05-07 18:15 | 57.75847 | 18.29043 | 34126 ft | 451 kts | 223° |
| 2026-05-07 18:16 | 57.71094 | 18.21482 | 34128 ft | 452 kts | 223° |
| 2026-05-07 18:16 | 57.66297 | 18.13862 | 34127 ft | 452 kts | 223° |
| 2026-05-07 18:17 | 57.61492 | 18.06239 | 34131 ft | 453 kts | 223° |
| 2026-05-07 18:17 | 57.56681 | 17.98619 | 34130 ft | 454 kts | 223° |
| 2026-05-07 18:18 | 57.51862 | 17.90998 | 34135 ft | 454 kts | 223° |
| 2026-05-07 18:18 | 57.47012 | 17.83432 | 34135 ft | 455 kts | 222° |
| 2026-05-07 18:19 | 57.42169 | 17.75939 | 34133 ft | 456 kts | 222° |
| 2026-05-07 18:19 | 57.37291 | 17.68402 | 34134 ft | 457 kts | 222° |
| 2026-05-07 18:20 | 57.32404 | 17.60862 | 34132 ft | 457 kts | 222° |
| 2026-05-07 18:20 | 57.27542 | 17.53371 | 34142 ft | 458 kts | 222° |
| 2026-05-07 18:21 | 57.22637 | 17.45824 | 34140 ft | 459 kts | 221° |
| 2026-05-07 18:21 | 57.17724 | 17.38275 | 34140 ft | 459 kts | 221° |
| 2026-05-07 18:22 | 57.12811 | 17.30737 | 34139 ft | 460 kts | 221° |
| 2026-05-07 18:22 | 57.07857 | 17.23258 | 34138 ft | 461 kts | 221° |
| 2026-05-07 18:23 | 57.02891 | 17.15803 | 34138 ft | 460 kts | 221° |
| 2026-05-07 18:23 | 56.97938 | 17.08378 | 34141 ft | 459 kts | 220° |
| 2026-05-07 18:24 | 56.93023 | 17.01022 | 34139 ft | 459 kts | 220° |
| 2026-05-07 18:24 | 56.88082 | 16.93638 | 34142 ft | 459 kts | 220° |
| 2026-05-07 18:25 | 56.83135 | 16.86256 | 34141 ft | 459 kts | 220° |
| 2026-05-07 18:25 | 56.78179 | 16.78872 | 34133 ft | 459 kts | 220° |
| 2026-05-07 18:26 | 56.73223 | 16.71497 | 34132 ft | 460 kts | 220° |
| 2026-05-07 18:26 | 56.68260 | 16.64125 | 34131 ft | 461 kts | 220° |
| 2026-05-07 18:27 | 56.63321 | 16.56802 | 34127 ft | 461 kts | 220° |
| 2026-05-07 18:27 | 56.58304 | 16.49513 | 34127 ft | 462 kts | 219° |
| 2026-05-07 18:28 | 56.53275 | 16.42224 | 34130 ft | 462 kts | 219° |
| 2026-05-07 18:28 | 56.48237 | 16.34930 | 34131 ft | 463 kts | 219° |
| 2026-05-07 18:29 | 56.43227 | 16.27689 | 34134 ft | 463 kts | 219° |
| 2026-05-07 18:29 | 56.38186 | 16.20414 | 34132 ft | 464 kts | 219° |
| 2026-05-07 18:30 | 56.33139 | 16.13142 | 34137 ft | 464 kts | 219° |
| 2026-05-07 18:30 | 56.28093 | 16.05881 | 34140 ft | 464 kts | 219° |
| 2026-05-07 18:31 | 56.23035 | 15.98611 | 34145 ft | 465 kts | 219° |
| 2026-05-07 18:31 | 56.18003 | 15.91391 | 34140 ft | 466 kts | 219° |
| 2026-05-07 18:32 | 56.12939 | 15.84134 | 34144 ft | 466 kts | 219° |
| 2026-05-07 18:32 | 56.07869 | 15.76883 | 34145 ft | 466 kts | 219° |
| 2026-05-07 18:33 | 56.02797 | 15.69639 | 34144 ft | 466 kts | 219° |
| 2026-05-07 18:33 | 55.97674 | 15.62504 | 34144 ft | 467 kts | 218° |
| 2026-05-07 18:34 | 55.92568 | 15.55458 | 34149 ft | 467 kts | 218° |
| 2026-05-07 18:34 | 55.87427 | 15.48372 | 34148 ft | 467 kts | 218° |
| 2026-05-07 18:35 | 55.82289 | 15.41299 | 34146 ft | 467 kts | 218° |
| 2026-05-07 18:35 | 55.77145 | 15.34230 | 34144 ft | 467 kts | 218° |
| 2026-05-07 18:36 | 55.72005 | 15.27174 | 34145 ft | 466 kts | 218° |
| 2026-05-07 18:36 | 55.66877 | 15.20146 | 34149 ft | 466 kts | 218° |
| 2026-05-07 18:37 | 55.61748 | 15.13125 | 34150 ft | 465 kts | 218° |
| 2026-05-07 18:37 | 55.56661 | 15.06173 | 34150 ft | 465 kts | 218° |
| 2026-05-07 18:38 | 55.51544 | 14.99188 | 34146 ft | 465 kts | 218° |
| 2026-05-07 18:38 | 55.46426 | 14.92212 | 34147 ft | 464 kts | 218° |
| 2026-05-07 18:39 | 55.41310 | 14.85249 | 34150 ft | 463 kts | 218° |
| 2026-05-07 18:39 | 55.36216 | 14.78325 | 34148 ft | 463 kts | 218° |
| 2026-05-07 18:40 | 55.31092 | 14.71466 | 34152 ft | 462 kts | 217° |
| 2026-05-07 18:40 | 55.25931 | 14.64739 | 34151 ft | 462 kts | 217° |
| 2026-05-07 18:41 | 55.20799 | 14.58058 | 34154 ft | 462 kts | 217° |
| 2026-05-07 18:41 | 55.15642 | 14.51353 | 34155 ft | 461 kts | 217° |
| 2026-05-07 18:42 | 55.10490 | 14.44664 | 34155 ft | 461 kts | 217° |
| 2026-05-07 18:42 | 55.05329 | 14.37971 | 34155 ft | 461 kts | 217° |
| 2026-05-07 18:43 | 55.00182 | 14.31307 | 34152 ft | 461 kts | 217° |
| 2026-05-07 18:43 | 54.95058 | 14.24682 | 34156 ft | 461 kts | 217° |
| 2026-05-07 18:44 | 54.89918 | 14.17899 | 34153 ft | 461 kts | 218° |
| 2026-05-07 18:44 | 54.85001 | 14.10857 | 34156 ft | 460 kts | 220° |
| 2026-05-07 18:45 | 54.80002 | 14.03932 | 34150 ft | 459 kts | 221° |
| 2026-05-07 18:45 | 54.75053 | 13.96897 | 34155 ft | 460 kts | 218° |
| 2026-05-07 18:46 | 54.70116 | 13.89861 | 34160 ft | 460 kts | 219° |
| 2026-05-07 18:46 | 54.65203 | 13.82865 | 34158 ft | 461 kts | 219° |
| 2026-05-07 18:47 | 54.60244 | 13.75810 | 34156 ft | 461 kts | 219° |
| 2026-05-07 18:47 | 54.55289 | 13.68769 | 34154 ft | 462 kts | 219° |
| 2026-05-07 18:48 | 54.50321 | 13.61718 | 34159 ft | 463 kts | 219° |
| 2026-05-07 18:48 | 54.45349 | 13.54669 | 34155 ft | 463 kts | 219° |
| 2026-05-07 18:49 | 54.40366 | 13.47615 | 34153 ft | 464 kts | 219° |
| 2026-05-07 18:49 | 54.35404 | 13.40600 | 34150 ft | 464 kts | 219° |
| 2026-05-07 18:50 | 54.30387 | 13.33612 | 34150 ft | 465 kts | 218° |
| 2026-05-07 18:50 | 54.25320 | 13.26744 | 34147 ft | 465 kts | 218° |
| 2026-05-07 18:51 | 54.20249 | 13.19881 | 34145 ft | 465 kts | 218° |
| 2026-05-07 18:51 | 54.15178 | 13.13022 | 34139 ft | 465 kts | 218° |
| 2026-05-07 18:52 | 54.10108 | 13.06173 | 34144 ft | 465 kts | 218° |
| 2026-05-07 18:52 | 54.05027 | 12.99315 | 34141 ft | 465 kts | 218° |
| 2026-05-07 18:53 | 53.99950 | 12.92473 | 34142 ft | 465 kts | 218° |
| 2026-05-07 18:53 | 53.94896 | 12.85671 | 34142 ft | 466 kts | 218° |
| 2026-05-07 18:54 | 53.89811 | 12.78835 | 34139 ft | 465 kts | 218° |
| 2026-05-07 18:54 | 53.84736 | 12.72021 | 34137 ft | 465 kts | 218° |
| 2026-05-07 18:55 | 53.79656 | 12.65222 | 34136 ft | 465 kts | 218° |
| 2026-05-07 18:55 | 53.74604 | 12.58491 | 34133 ft | 464 kts | 218° |
| 2026-05-07 18:56 | 53.69515 | 12.51720 | 34134 ft | 464 kts | 218° |
| 2026-05-07 18:56 | 53.64446 | 12.44984 | 34128 ft | 463 kts | 218° |
| 2026-05-07 18:57 | 53.59412 | 12.38303 | 34129 ft | 463 kts | 218° |
| 2026-05-07 18:57 | 53.54350 | 12.31599 | 34125 ft | 463 kts | 218° |
| 2026-05-07 18:58 | 53.49290 | 12.24941 | 34126 ft | 462 kts | 218° |
| 2026-05-07 18:58 | 53.44219 | 12.18276 | 34125 ft | 462 kts | 218° |
| 2026-05-07 18:59 | 53.39159 | 12.11633 | 34121 ft | 461 kts | 218° |
| 2026-05-07 18:59 | 53.34133 | 12.05055 | 34119 ft | 461 kts | 218° |
| 2026-05-07 19:00 | 53.29924 | 11.99571 | 34116 ft | 461 kts | 218° |
| 2026-05-07 19:00 | 53.24860 | 11.92977 | 34118 ft | 460 kts | 218° |
| 2026-05-07 19:01 | 53.19809 | 11.86402 | 34116 ft | 460 kts | 218° |
| 2026-05-07 19:01 | 53.14757 | 11.79841 | 34112 ft | 460 kts | 218° |
| 2026-05-07 19:02 | 53.09725 | 11.73328 | 34112 ft | 460 kts | 218° |
| 2026-05-07 19:02 | 53.04663 | 11.66822 | 34116 ft | 459 kts | 217° |
| 2026-05-07 19:03 | 52.99534 | 11.60479 | 34113 ft | 459 kts | 217° |
| 2026-05-07 19:03 | 52.94400 | 11.54147 | 34116 ft | 459 kts | 217° |
| 2026-05-07 19:04 | 52.89265 | 11.47810 | 34111 ft | 460 kts | 217° |
| 2026-05-07 19:04 | 52.84163 | 11.41522 | 34116 ft | 460 kts | 217° |
| 2026-05-07 19:05 | 52.79030 | 11.35211 | 34115 ft | 460 kts | 217° |
| 2026-05-07 19:05 | 52.73881 | 11.28906 | 34111 ft | 460 kts | 217° |
| 2026-05-07 19:06 | 52.68739 | 11.22613 | 34113 ft | 460 kts | 217° |
| 2026-05-07 19:06 | 52.61043 | 11.13181 | 34116 ft | 459 kts | 217° |
| 2026-05-07 19:07 | 52.55927 | 11.06995 | 34115 ft | 459 kts | 217° |
| 2026-05-07 19:07 | 52.50785 | 11.00767 | 34117 ft | 459 kts | 217° |
| 2026-05-07 19:08 | 52.45652 | 10.94528 | 34114 ft | 459 kts | 217° |
| 2026-05-07 19:08 | 52.40526 | 10.88290 | 34110 ft | 459 kts | 217° |
| 2026-05-07 19:09 | 52.35250 | 10.82445 | 34103 ft | 459 kts | 207° |
| 2026-05-07 19:09 | 52.29328 | 10.78561 | 34111 ft | 458 kts | 199° |
| 2026-05-07 19:10 | 52.23326 | 10.75154 | 34111 ft | 459 kts | 199° |
| 2026-05-07 19:10 | 52.17294 | 10.71736 | 34114 ft | 459 kts | 199° |
| 2026-05-07 19:11 | 52.11262 | 10.68323 | 34114 ft | 459 kts | 199° |
| 2026-05-07 19:11 | 52.05221 | 10.64910 | 34119 ft | 459 kts | 199° |
| 2026-05-07 19:12 | 51.99187 | 10.61507 | 33820 ft | 458 kts | 199° |
| 2026-05-07 19:12 | 51.96213 | 10.59844 | 33375 ft | 456 kts | 199° |
| 2026-05-07 19:12 | 51.93219 | 10.58171 | 32944 ft | 454 kts | 199° |
| 2026-05-07 19:13 | 51.90229 | 10.56509 | 32515 ft | 454 kts | 199° |
| 2026-05-07 19:13 | 51.87247 | 10.54861 | 32095 ft | 453 kts | 199° |
| 2026-05-07 19:13 | 51.84261 | 10.53213 | 31681 ft | 453 kts | 199° |
| 2026-05-07 19:13 | 51.81271 | 10.51563 | 31290 ft | 455 kts | 199° |
| 2026-05-07 19:14 | 51.78265 | 10.49906 | 30882 ft | 457 kts | 199° |
| 2026-05-07 19:14 | 51.75250 | 10.48246 | 30490 ft | 459 kts | 199° |
| 2026-05-07 19:14 | 51.72230 | 10.46586 | 30080 ft | 458 kts | 199° |
| 2026-05-07 19:14 | 51.69214 | 10.44940 | 29632 ft | 455 kts | 199° |
| 2026-05-07 19:15 | 51.66219 | 10.43309 | 29172 ft | 453 kts | 199° |
| 2026-05-07 19:15 | 51.63242 | 10.41699 | 28722 ft | 448 kts | 199° |
| 2026-05-07 19:15 | 51.60306 | 10.40115 | 28283 ft | 441 kts | 199° |
| 2026-05-07 19:15 | 51.57422 | 10.38563 | 27839 ft | 434 kts | 199° |
| 2026-05-07 19:16 | 51.54571 | 10.37032 | 27401 ft | 430 kts | 199° |
| 2026-05-07 19:16 | 51.51746 | 10.35517 | 27069 ft | 429 kts | 199° |
| 2026-05-07 19:16 | 51.48915 | 10.34001 | 26756 ft | 429 kts | 199° |
| 2026-05-07 19:16 | 51.46086 | 10.32492 | 26445 ft | 428 kts | 199° |
| 2026-05-07 19:17 | 51.43254 | 10.30986 | 26140 ft | 428 kts | 199° |
| 2026-05-07 19:17 | 51.40465 | 10.29488 | 25845 ft | 427 kts | 200° |
| 2026-05-07 19:17 | 51.37688 | 10.28007 | 25536 ft | 412 kts | 199° |
| 2026-05-07 19:17 | 51.35007 | 10.26604 | 25229 ft | 400 kts | 198° |
| 2026-05-07 19:18 | 51.32286 | 10.25679 | 24914 ft | 400 kts | 188° |
| 2026-05-07 19:18 | 51.29504 | 10.25377 | 24659 ft | 400 kts | 181° |
| 2026-05-07 19:18 | 51.26708 | 10.25626 | 24450 ft | 404 kts | 178° |
| 2026-05-07 19:18 | 51.23899 | 10.25737 | 24328 ft | 403 kts | 181° |
| 2026-05-07 19:19 | 51.21100 | 10.25655 | 24213 ft | 402 kts | 183° |
| 2026-05-07 19:19 | 51.18307 | 10.25574 | 24100 ft | 401 kts | 182° |
| 2026-05-07 19:19 | 51.15530 | 10.25507 | 24106 ft | 398 kts | 182° |
| 2026-05-07 19:19 | 51.12770 | 10.25413 | 24091 ft | 394 kts | 185° |
| 2026-05-07 19:20 | 51.10115 | 10.24520 | 24093 ft | 390 kts | 202° |
| 2026-05-07 19:20 | 51.07692 | 10.22677 | 24095 ft | 392 kts | 211° |
| 2026-05-07 19:20 | 51.05356 | 10.20388 | 24107 ft | 395 kts | 214° |
| 2026-05-07 19:20 | 51.03033 | 10.18013 | 24103 ft | 400 kts | 214° |
| 2026-05-07 19:21 | 51.00678 | 10.15605 | 24114 ft | 404 kts | 214° |
| 2026-05-07 19:21 | 50.98308 | 10.13182 | 24109 ft | 407 kts | 214° |
| 2026-05-07 19:21 | 50.95991 | 10.10609 | 24110 ft | 405 kts | 219° |
| 2026-05-07 19:21 | 50.93897 | 10.07675 | 24039 ft | 400 kts | 224° |
| 2026-05-07 19:22 | 50.91900 | 10.04635 | 23747 ft | 396 kts | 225° |
| 2026-05-07 19:22 | 50.89924 | 10.01621 | 23401 ft | 392 kts | 225° |
| 2026-05-07 19:22 | 50.87964 | 9.98634 | 23035 ft | 389 kts | 225° |
| 2026-05-07 19:22 | 50.86017 | 9.95669 | 22617 ft | 387 kts | 225° |
| 2026-05-07 19:23 | 50.84086 | 9.92731 | 22078 ft | 383 kts | 225° |
| 2026-05-07 19:23 | 50.82195 | 9.89856 | 21547 ft | 380 kts | 225° |
| 2026-05-07 19:23 | 50.80298 | 9.86973 | 21062 ft | 376 kts | 225° |
| 2026-05-07 19:23 | 50.78425 | 9.84130 | 20606 ft | 372 kts | 225° |
| 2026-05-07 19:24 | 50.76555 | 9.81294 | 20225 ft | 373 kts | 225° |
| 2026-05-07 19:24 | 50.74687 | 9.78461 | 20081 ft | 369 kts | 225° |
| 2026-05-07 19:24 | 50.72824 | 9.75637 | 19944 ft | 376 kts | 225° |
| 2026-05-07 19:24 | 50.70910 | 9.72735 | 19706 ft | 387 kts | 225° |
| 2026-05-07 19:25 | 50.68947 | 9.69758 | 19466 ft | 395 kts | 225° |
| 2026-05-07 19:25 | 50.66954 | 9.66737 | 19300 ft | 396 kts | 225° |
| 2026-05-07 19:25 | 50.64993 | 9.63763 | 19191 ft | 383 kts | 225° |
| 2026-05-07 19:25 | 50.63121 | 9.60867 | 19050 ft | 369 kts | 225° |
| 2026-05-07 19:26 | 50.61312 | 9.58069 | 19003 ft | 364 kts | 225° |
| 2026-05-07 19:26 | 50.59513 | 9.55288 | 18970 ft | 370 kts | 225° |
| 2026-05-07 19:26 | 50.57651 | 9.52408 | 18824 ft | 378 kts | 225° |
| 2026-05-07 19:26 | 50.55788 | 9.49554 | 18502 ft | 364 kts | 225° |
| 2026-05-07 19:27 | 50.54004 | 9.46823 | 18123 ft | 351 kts | 225° |
| 2026-05-07 19:27 | 50.52278 | 9.44183 | 17724 ft | 341 kts | 225° |
| 2026-05-07 19:27 | 50.50601 | 9.41620 | 17329 ft | 332 kts | 225° |
| 2026-05-07 19:27 | 50.48956 | 9.39112 | 16932 ft | 327 kts | 225° |
| 2026-05-07 19:28 | 50.47339 | 9.36646 | 16600 ft | 322 kts | 225° |
| 2026-05-07 19:28 | 50.45737 | 9.34208 | 16291 ft | 327 kts | 225° |
| 2026-05-07 19:28 | 50.44100 | 9.31710 | 15990 ft | 330 kts | 226° |
| 2026-05-07 19:28 | 50.42442 | 9.29176 | 15746 ft | 335 kts | 222° |
| 2026-05-07 19:29 | 50.40569 | 9.26978 | 15505 ft | 339 kts | 214° |
| 2026-05-07 19:29 | 50.38536 | 9.25113 | 15262 ft | 335 kts | 208° |
| 2026-05-07 19:29 | 50.36509 | 9.23387 | 15011 ft | 329 kts | 214° |
| 2026-05-07 19:29 | 50.34580 | 9.21387 | 14764 ft | 337 kts | 214° |
| 2026-05-07 19:30 | 50.32583 | 9.19396 | 14525 ft | 343 kts | 214° |
| 2026-05-07 19:30 | 50.30539 | 9.17416 | 14295 ft | 348 kts | 213° |
| 2026-05-07 19:30 | 50.28536 | 9.15275 | 14059 ft | 347 kts | 223° |
| 2026-05-07 19:30 | 50.27137 | 9.12348 | 13804 ft | 330 kts | 244° |
| 2026-05-07 19:31 | 50.26306 | 9.09114 | 13531 ft | 319 kts | 256° |
| 2026-05-07 19:31 | 50.25751 | 9.05759 | 13256 ft | 313 kts | 253° |
| 2026-05-07 19:31 | 50.25123 | 9.02567 | 12986 ft | 310 kts | 253° |
| 2026-05-07 19:31 | 50.24652 | 9.00198 | 12788 ft | 308 kts | 253° |
| 2026-05-07 19:32 | 50.24005 | 8.97016 | 12524 ft | 306 kts | 253° |
| 2026-05-07 19:32 | 50.23357 | 8.93863 | 12245 ft | 305 kts | 252° |
| 2026-05-07 19:32 | 50.22682 | 8.90726 | 11924 ft | 303 kts | 252° |
| 2026-05-07 19:32 | 50.22003 | 8.87623 | 11627 ft | 300 kts | 252° |
| 2026-05-07 19:33 | 50.21318 | 8.84556 | 11321 ft | 297 kts | 251° |
| 2026-05-07 19:33 | 50.20624 | 8.81531 | 11024 ft | 295 kts | 251° |
| 2026-05-07 19:33 | 50.19931 | 8.78525 | 10722 ft | 293 kts | 251° |
| 2026-05-07 19:33 | 50.19241 | 8.75549 | 10477 ft | 291 kts | 251° |
| 2026-05-07 19:34 | 50.18561 | 8.72617 | 10235 ft | 290 kts | 251° |
| 2026-05-07 19:34 | 50.17872 | 8.69653 | 9992 ft | 290 kts | 250° |
| 2026-05-07 19:34 | 50.17105 | 8.66753 | 9728 ft | 289 kts | 247° |
| 2026-05-07 19:34 | 50.16407 | 8.63817 | 9484 ft | 286 kts | 254° |
| 2026-05-07 19:35 | 50.15765 | 8.60904 | 9276 ft | 282 kts | 248° |
| 2026-05-07 19:35 | 50.14967 | 8.58172 | 9053 ft | 272 kts | 248° |
| 2026-05-07 19:35 | 50.14351 | 8.55429 | 8826 ft | 264 kts | 252° |
| 2026-05-07 19:35 | 50.13704 | 8.52787 | 8599 ft | 258 kts | 247° |
| 2026-05-07 19:36 | 50.13047 | 8.50242 | 8426 ft | 249 kts | 251° |
| 2026-05-07 19:36 | 50.12442 | 8.47775 | 8255 ft | 246 kts | 247° |
| 2026-05-07 19:36 | 50.11805 | 8.45290 | 8080 ft | 243 kts | 252° |
| 2026-05-07 19:36 | 50.11229 | 8.42855 | 7914 ft | 241 kts | 247° |
| 2026-05-07 19:37 | 50.10554 | 8.40471 | 7756 ft | 241 kts | 250° |
| 2026-05-07 19:37 | 50.10018 | 8.37982 | 7568 ft | 244 kts | 250° |
| 2026-05-07 19:37 | 50.09344 | 8.35544 | 7387 ft | 246 kts | 246° |
| 2026-05-07 19:37 | 50.08738 | 8.33033 | 7196 ft | 248 kts | 253° |
| 2026-05-07 19:38 | 50.08130 | 8.30499 | 6994 ft | 251 kts | 246° |
| 2026-05-07 19:38 | 50.07446 | 8.28009 | 6749 ft | 247 kts | 251° |
| 2026-05-07 19:38 | 50.06866 | 8.25507 | 6495 ft | 245 kts | 249° |
| 2026-05-07 19:38 | 50.06206 | 8.23067 | 6199 ft | 243 kts | 250° |
| 2026-05-07 19:39 | 50.05599 | 8.20644 | 5859 ft | 243 kts | 248° |
| 2026-05-07 19:39 | 50.04946 | 8.18220 | 5530 ft | 243 kts | 243° |
| 2026-05-07 19:39 | 50.03898 | 8.16208 | 5328 ft | 240 kts | 218° |
| 2026-05-07 19:39 | 50.02919 | 8.15377 | 5152 ft | 236 kts | 199° |
| 2026-05-07 19:40 | 50.00782 | 8.15233 | 4680 ft | 234 kts | 167° |
| 2026-05-07 19:40 | 49.99305 | 8.16229 | 4315 ft | 231 kts | 146° |
| 2026-05-07 19:40 | 49.98096 | 8.17824 | 4035 ft | 225 kts | 128° |
| 2026-05-07 19:40 | 49.97368 | 8.19936 | 3761 ft | 219 kts | 105° |
| 2026-05-07 19:41 | 49.97274 | 8.22177 | 3566 ft | 199 kts | 78° |
| 2026-05-07 19:41 | 49.97616 | 8.24158 | 3347 ft | 188 kts | 72° |
| 2026-05-07 19:41 | 49.98020 | 8.26044 | 3108 ft | 180 kts | 69° |
| 2026-05-07 19:41 | 49.98430 | 8.27886 | 2893 ft | 180 kts | 69° |
| 2026-05-07 19:42 | 49.98871 | 8.29697 | 2732 ft | 178 kts | 68° |
| 2026-05-07 19:42 | 49.99315 | 8.31489 | 2564 ft | 177 kts | 69° |
| 2026-05-07 19:42 | 49.99735 | 8.33294 | 2414 ft | 178 kts | 69° |
| 2026-05-07 19:42 | 50.00169 | 8.35096 | 2256 ft | 177 kts | 69° |
| 2026-05-07 19:43 | 50.00605 | 8.36875 | 2111 ft | 176 kts | 68° |
| 2026-05-07 19:43 | 50.01053 | 8.38616 | 1878 ft | 166 kts | 69° |
| 2026-05-07 19:43 | 50.01418 | 8.40219 | 1649 ft | 152 kts | 70° |
| 2026-05-07 19:43 | 50.01794 | 8.41696 | 1457 ft | 142 kts | 67° |
| 2026-05-07 19:44 | 50.02133 | 8.43114 | 1222 ft | 138 kts | 71° |
| 2026-05-07 19:44 | 50.02464 | 8.44508 | 1041 ft | 139 kts | 68° |
| 2026-05-07 19:44 | 50.02808 | 8.45951 | 860 ft | 145 kts | 69° |
| 2026-05-07 19:44 | 50.03159 | 8.47417 | 668 ft | 142 kts | 69° |
| 2026-05-07 19:45 | 50.03495 | 8.48823 | 473 ft | 137 kts | 69° |
| 2026-05-07 19:45 | 50.03822 | 8.50199 | 325 ft | 131 kts | 69° |
| 2026-05-07 19:45 | 50.04070 | 8.51231 | 333 ft | 75 kts | 69° |
| 2026-05-07 19:45 | 50.04239 | 8.51934 | 346 ft | 63 kts | 70° |
| 2026-05-07 19:46 | 50.04373 | 8.52513 | 356 ft | 43 kts | 73° |
| 2026-05-07 19:46 | 50.04393 | 8.52785 | 360 ft | 17 kts | 95° |
| 2026-05-07 19:46 | 50.04380 | 8.52933 | 361 ft | 12 kts | 98° |
| 2026-05-07 19:46 | 50.04366 | 8.53066 | 364 ft | 13 kts | 99° |
| 2026-05-07 19:47 | 50.04353 | 8.53203 | 367 ft | 13 kts | 98° |
| 2026-05-07 19:47 | 50.04358 | 8.53342 | 371 ft | 13 kts | 65° |
| 2026-05-07 19:47 | 50.04393 | 8.53491 | 369 ft | 16 kts | 78° |
| 2026-05-07 19:47 | 50.04405 | 8.53687 | 367 ft | 19 kts | 85° |
| 2026-05-07 19:48 | 50.04421 | 8.53911 | 367 ft | 22 kts | 83° |
| 2026-05-07 19:48 | 50.04433 | 8.54074 | 368 ft | 24 kts | 84° |
| 2026-05-07 19:48 | 50.04449 | 8.54333 | 369 ft | 25 kts | 84° |
| 2026-05-07 19:48 | 50.04437 | 8.54564 | 369 ft | 19 kts | 112° |
| 2026-05-07 19:49 | 50.04372 | 8.54714 | 373 ft | 18 kts | 134° |
| 2026-05-07 19:49 | 50.04272 | 8.54795 | 369 ft | 16 kts | 159° |
| 2026-05-07 19:49 | 50.04167 | 8.54855 | 371 ft | 15 kts | 159° |
| 2026-05-07 19:49 | 50.04099 | 8.54893 | 367 ft | 6 kts | 160° |
| 2026-05-07 19:50 | 50.04096 | 8.54895 | 367 ft | 0 kts | 160° |
| 2026-05-07 19:51 | 50.04091 | 8.54898 | 369 ft | 3 kts | 160° |
| 2026-05-07 19:51 | 50.04049 | 8.54922 | 368 ft | 9 kts | 159° |
| 2026-05-07 19:51 | 50.04019 | 8.55015 | 369 ft | 12 kts | 76° |
| 2026-05-07 19:51 | 50.04053 | 8.55159 | 367 ft | 17 kts | 69° |
| 2026-05-07 19:52 | 50.04097 | 8.55345 | 371 ft | 20 kts | 69° |
| 2026-05-07 19:52 | 50.04147 | 8.55555 | 369 ft | 22 kts | 69° |
| 2026-05-07 19:52 | 50.04203 | 8.55787 | 370 ft | 24 kts | 70° |
| 2026-05-07 19:52 | 50.04264 | 8.56042 | 371 ft | 26 kts | 69° |
| 2026-05-07 19:53 | 50.04330 | 8.56320 | 371 ft | 28 kts | 69° |
| 2026-05-07 19:53 | 50.04402 | 8.56616 | 369 ft | 30 kts | 70° |
| 2026-05-07 19:53 | 50.04469 | 8.56901 | 372 ft | 29 kts | 69° |
| 2026-05-07 19:53 | 50.04540 | 8.57200 | 372 ft | 30 kts | 70° |
| 2026-05-07 19:54 | 50.04613 | 8.57504 | 373 ft | 27 kts | 69° |
| 2026-05-07 19:54 | 50.04677 | 8.57771 | 374 ft | 23 kts | 70° |
| 2026-05-07 19:54 | 50.04745 | 8.57946 | 371 ft | 15 kts | 48° |
| 2026-05-07 19:54 | 50.04787 | 8.58096 | 371 ft | 13 kts | 69° |
| 2026-05-07 19:55 | 50.04807 | 8.58188 | 369 ft | 5 kts | 91° |
| 2026-05-07 19:55 | 50.04784 | 8.58224 | 370 ft | 5 kts | 154° |
| 2026-05-07 19:55 | 50.04765 | 8.58237 | 370 ft | 3 kts | 157° |
| 2026-05-07 19:55 | 50.04763 | 8.58238 | 370 ft | 0 kts | 157° |